Time;durP1;ratioP1;P1;durP2;ratioP2;P2;SDS_P1;SDS_P2;PMS_P1;PMS_P2;Temp;Humidity;BMP_temperature;BMP_pressure;BME280_temperature;BME280_humidity;BME280_pressure;Samples;Min_cycle;Max_cycle;Signal;HPM_P1;HPM_P2
2022/11/23 01:16:44;;;;;;;5.83;2.20;;;11.80;93.00;;;;;;5085712;28;20227;-94
2022/11/23 01:22:26;;;;;;;11.23;3.07;;;11.70;93.00;;;;;;5084709;28;20227;-94
2022/11/23 01:25:16;;;;;;;6.97;2.20;;;11.80;93.00;;;;;;5083166;28;20686;-95
2022/11/23 01:28:00;;;;;;;9.63;2.83;;;11.70;93.00;;;;;;5071551;28;20290;-95
2022/11/23 01:30:33;;;;;;;7.53;2.27;;;11.70;92.90;;;;;;5088130;28;20199;-94
2022/11/23 01:33:19;;;;;;;9.30;2.77;;;11.70;93.10;;;;;;5089213;28;20195;-95
2022/11/23 01:41:50;;;;;;;11.13;3.37;;;11.60;92.90;;;;;;5066004;28;20204;-94
2022/11/23 01:44:24;;;;;;;18.50;5.27;;;11.60;92.80;;;;;;5075491;28;20256;-95
2022/11/23 01:47:22;;;;;;;10.07;3.00;;;11.60;92.90;;;;;;5093873;28;20224;-94
2022/11/23 01:50:22;;;;;;;6.93;2.47;;;11.60;93.00;;;;;;5092286;28;20229;-94
2022/11/23 01:53:45;;;;;;;11.37;2.60;;;11.50;92.90;;;;;;5072610;28;20208;-95
2022/11/23 01:59:29;;;;;;;11.10;4.10;;;11.50;93.10;;;;;;5070543;28;20208;-96
2022/11/23 02:05:08;;;;;;;8.07;2.87;;;11.50;93.10;;;;;;5444988;22;20242;-96
2022/11/23 02:14:05;;;;;;;8.47;3.20;;;11.40;93.30;;;;;;5062444;28;20230;-93
2022/11/23 02:16:48;;;;;;;;;;;;;;;;;;;;;
2022/11/23 02:22:23;;;;;;;12.67;3.20;;;11.40;93.60;;;;;;5063385;28;20226;-93
2022/11/23 02:24:57;;;;;;;10.43;3.17;;;11.40;93.50;;;;;;5066151;28;20673;-93
2022/11/23 02:27:38;;;;;;;11.20;3.17;;;11.40;93.50;;;;;;5049591;28;20286;-94
2022/11/23 02:30:12;;;;;;;10.87;3.33;;;11.40;93.50;;;;;;5041818;28;20254;-92
2022/11/23 02:32:40;;;;;;;5.47;2.53;;;11.30;93.40;;;;;;5040490;28;20204;-92
2022/11/23 02:35:15;;;;;;;10.67;3.07;;;11.40;93.30;;;;;;5041070;28;20209;-94
2022/11/23 02:37:46;;;;;;;8.20;3.10;;;11.40;93.60;;;;;;5042753;28;20204;-94
2022/11/23 02:40:28;;;;;;;15.43;3.83;;;11.40;93.50;;;;;;5055793;28;20223;-95
2022/11/23 02:43:01;;;;;;;14.13;3.53;;;11.40;93.60;;;;;;5060454;28;20246;-94
2022/11/23 02:45:39;;;;;;;12.60;3.30;;;11.30;93.40;;;;;;5062247;28;20698;-94
2022/11/23 02:48:15;;;;;;;15.40;4.10;;;11.40;93.60;;;;;;5062287;28;20234;-95
2022/11/23 02:50:50;;;;;;;8.40;3.37;;;11.40;93.50;;;;;;5064455;28;20199;-93
2022/11/23 02:53:20;;;;;;;11.50;3.47;;;11.40;93.40;;;;;;5064181;28;20203;-94
2022/11/23 02:56:01;;;;;;;12.30;3.43;;;11.40;93.40;;;;;;5060075;28;20267;-95
2022/11/23 02:58:35;;;;;;;10.10;3.53;;;11.40;93.40;;;;;;5064845;28;20287;-94
2022/11/23 03:01:10;;;;;;;11.43;3.23;;;11.40;93.30;;;;;;5064733;28;20224;-95
2022/11/23 03:03:38;;;;;;;12.17;2.90;;;11.40;93.40;;;;;;5043763;28;20243;-95
2022/11/23 03:06:12;;;;;;;10.87;3.57;;;11.40;93.20;;;;;;5044447;28;20233;-94
2022/11/23 03:08:42;;;;;;;17.17;4.47;;;11.30;93.40;;;;;;5042044;28;20240;-92
2022/11/23 03:11:12;;;;;;;16.27;5.50;;;11.40;93.30;;;;;;5051714;28;20224;-93
2022/11/23 03:13:41;;;;;;;10.83;3.10;;;11.30;93.30;;;;;;5040493;28;20208;-93
2022/11/23 03:16:15;;;;;;;13.43;3.73;;;11.40;93.30;;;;;;5041226;28;20197;-94
2022/11/23 03:18:59;;;;;;;12.07;3.80;;;11.40;93.40;;;;;;5043542;28;20205;-95
2022/11/23 03:21:47;;;;;;;7.07;2.37;;;11.30;93.50;;;;;;5063458;28;20283;-95
2022/11/23 03:27:17;;;;;;;14.97;4.03;;;11.40;93.40;;;;;;5048737;28;20228;-94
2022/11/23 03:29:55;;;;;;;12.27;2.83;;;11.40;93.50;;;;;;5044184;28;20223;-93
2022/11/23 03:32:24;;;;;;;19.77;5.07;;;11.40;93.50;;;;;;5044237;28;20203;-95
2022/11/23 03:35:06;;;;;;;12.10;3.03;;;11.40;93.50;;;;;;5042025;28;20217;-95
2022/11/23 03:37:37;;;;;;;14.27;3.63;;;11.40;93.50;;;;;;5044601;28;20205;-95
2022/11/23 03:40:11;;;;;;;16.00;4.23;;;11.40;93.30;;;;;;5046175;28;20204;-94
2022/11/23 03:43:04;;;;;;;12.57;3.17;;;11.40;93.40;;;;;;5042757;28;20269;-95
2022/11/23 03:46:12;;;;;;;16.57;4.47;;;11.40;93.30;;;;;;5041996;28;20197;-93
2022/11/23 03:48:56;;;;;;;11.87;3.17;;;11.40;93.30;;;;;;5042837;28;20224;-96
2022/11/23 03:51:24;;;;;;;15.90;4.37;;;11.40;93.20;;;;;;5043180;28;20201;-94
2022/11/23 03:54:11;;;;;;;13.03;3.70;;;11.40;93.10;;;;;;5062553;28;20197;-95
2022/11/23 03:56:54;;;;;;;14.20;3.60;;;11.40;93.00;;;;;;5067563;28;20208;-96
2022/11/23 03:59:23;;;;;;;13.60;3.87;;;11.40;93.00;;;;;;5047329;28;20228;-94
2022/11/23 04:02:00;;;;;;;15.77;3.77;;;11.40;92.80;;;;;;5050124;28;20223;-94
2022/11/23 04:04:35;;;;;;;12.33;3.10;;;11.40;92.70;;;;;;5044153;28;20235;-94
2022/11/23 04:07:06;;;;;;;11.47;3.47;;;11.40;92.70;;;;;;5040875;28;20228;-95
2022/11/23 04:09:38;;;;;;;15.80;4.47;;;11.40;92.50;;;;;;5042570;28;20216;-94
2022/11/23 04:12:14;;;;;;;25.50;6.37;;;11.40;92.50;;;;;;5041665;28;20224;-94
2022/11/23 04:14:44;;;;;;;11.93;2.90;;;11.40;92.40;;;;;;5056137;28;20204;-95
2022/11/23 04:17:16;;;;;;;15.23;4.37;;;11.40;92.30;;;;;;5048098;28;20649;-93
2022/11/23 04:19:45;;;;;;;9.23;3.53;;;11.40;92.20;;;;;;5039398;28;20212;-94
2022/11/23 04:22:17;;;;;;;13.97;4.00;;;11.40;92.00;;;;;;5054587;28;20192;-94
2022/11/23 04:24:50;;;;;;;12.50;4.47;;;11.40;91.80;;;;;;5064534;28;20223;-96
2022/11/23 04:27:22;;;;;;;17.27;4.80;;;11.40;91.80;;;;;;5047025;28;20307;-95
2022/11/23 04:33:27;;;;;;;15.40;3.63;;;11.30;91.70;;;;;;5163212;27;20527;-96
2022/11/23 04:36:03;;;;;;;13.40;3.53;;;11.30;91.60;;;;;;5140652;27;20229;-95
2022/11/23 04:38:40;;;;;;;15.20;3.67;;;11.30;91.60;;;;;;5140283;28;20228;-96
2022/11/23 04:41:35;;;;;;;14.20;4.40;;;11.20;91.50;;;;;;5142459;27;20203;-96
2022/11/23 04:44:02;;;;;;;14.90;4.20;;;11.20;91.50;;;;;;5141775;27;20221;-95
2022/11/23 04:50:10;;;;;;;11.57;3.37;;;11.20;91.50;;;;;;5154036;27;20220;-96
2022/11/23 04:53:01;;;;;;;14.50;3.67;;;11.20;91.40;;;;;;5147382;27;20205;-96
2022/11/23 04:55:28;;;;;;;10.10;2.87;;;11.20;91.50;;;;;;5146319;27;20209;-94
2022/11/23 04:58:35;;;;;;;12.47;3.30;;;11.20;91.80;;;;;;5144218;27;20633;-96
2022/11/23 05:02:02;;;;;;;13.57;3.77;;;11.10;91.40;;;;;;5135815;27;20224;-95
2022/11/23 05:05:21;;;;;;;11.63;3.13;;;11.10;91.50;;;;;;5139526;27;20197;-95
2022/11/23 05:07:49;;;;;;;9.53;2.90;;;11.10;91.40;;;;;;5147356;28;20197;-93
2022/11/23 05:10:46;;;;;;;13.00;3.93;;;11.10;91.40;;;;;;5138190;28;20194;-95
2022/11/23 05:13:18;;;;;;;14.83;4.23;;;11.10;91.70;;;;;;5135513;28;20649;-95
2022/11/23 05:15:50;;;;;;;11.40;3.53;;;11.10;91.40;;;;;;5124422;28;20207;-96
2022/11/23 05:18:32;;;;;;;14.27;5.17;;;11.10;91.30;;;;;;5141192;27;20197;-94
2022/11/23 05:21:40;;;;;;;11.57;3.97;;;11.10;91.30;;;;;;5139537;28;20288;-95
2022/11/23 05:27:43;;;;;;;19.73;4.70;;;11.20;91.40;;;;;;5124172;28;20265;-94
2022/11/23 05:33:17;;;;;;;14.33;4.50;;;11.20;91.30;;;;;;5146308;27;20262;-94
2022/11/23 05:36:06;;;;;;;8.93;3.87;;;11.20;91.20;;;;;;5147730;28;20281;-96
2022/11/23 05:38:52;;;;;;;8.80;2.70;;;11.20;91.10;;;;;;5148097;28;20186;-94
2022/11/23 05:41:22;;;;;;;16.13;4.03;;;11.20;91.00;;;;;;5146721;27;20206;-94
2022/11/23 05:44:06;;;;;;;13.50;3.77;;;11.20;90.90;;;;;;5135244;28;20206;-95
2022/11/23 05:52:43;;;;;;;16.43;4.57;;;11.30;90.90;;;;;;5135788;27;20320;-94
2022/11/23 05:55:16;;;;;;;14.67;3.80;;;11.20;90.60;;;;;;5137722;27;20198;-95
2022/11/23 05:57:50;;;;;;;13.33;3.43;;;11.30;90.50;;;;;;5132615;28;20229;-94
2022/11/23 06:00:24;;;;;;;18.17;5.10;;;11.20;90.30;;;;;;5121681;28;20211;-94
2022/11/23 06:03:05;;;;;;;13.33;4.70;;;11.20;90.50;;;;;;5123128;28;20202;-93
2022/11/23 06:05:33;;;;;;;13.47;3.63;;;11.20;90.30;;;;;;5113487;27;20223;-95
2022/11/23 06:08:01;;;;;;;10.50;3.23;;;11.20;90.10;;;;;;5113983;28;20217;-93
2022/11/23 06:10:30;;;;;;;11.47;4.03;;;11.30;90.10;;;;;;5105557;28;20584;-93
2022/11/23 06:13:32;;;;;;;12.70;3.50;;;11.30;89.60;;;;;;5125895;28;20243;-96
2022/11/23 06:16:19;;;;;;;13.40;3.17;;;11.30;89.10;;;;;;5122823;28;20237;-94
2022/11/23 06:18:54;;;;;;;8.70;2.43;;;11.30;89.10;;;;;;5122255;28;20198;-94
2022/11/23 06:21:22;;;;;;;14.33;4.23;;;11.30;89.00;;;;;;5123171;28;20213;-95
2022/11/23 06:23:51;;;;;;;9.13;2.67;;;11.30;89.40;;;;;;5122175;28;20202;-95
2022/11/23 06:26:21;;;;;;;14.90;3.53;;;11.30;89.00;;;;;;5122893;28;20210;-95
2022/11/23 06:28:50;;;;;;;15.57;3.73;;;11.30;88.50;;;;;;5123622;28;20206;-94
2022/11/23 06:31:21;;;;;;;12.87;3.40;;;11.20;88.20;;;;;;5113996;28;20228;-95
2022/11/23 06:33:57;;;;;;;12.47;3.23;;;11.20;88.20;;;;;;5095249;28;20205;-94
2022/11/23 06:36:37;;;;;;;13.93;3.57;;;11.20;87.80;;;;;;5113078;28;20201;-96
2022/11/23 06:39:05;;;;;;;9.97;2.53;;;11.10;87.40;;;;;;5118976;28;20198;-96
2022/11/23 06:41:33;;;;;;;12.87;3.37;;;11.10;87.50;;;;;;5117947;28;20210;-95
2022/11/23 06:44:06;;;;;;;9.80;2.97;;;11.10;87.00;;;;;;5118188;28;20246;-95
2022/11/23 06:46:39;;;;;;;13.00;3.33;;;11.10;86.50;;;;;;5119090;27;20197;-95
2022/11/23 06:49:20;;;;;;;12.73;3.67;;;11.00;86.30;;;;;;5130699;28;20301;-95
2022/11/23 06:51:53;;;;;;;9.43;3.23;;;11.00;86.10;;;;;;5119276;28;20274;-96
2022/11/23 06:54:27;;;;;;;17.10;4.20;;;11.00;86.10;;;;;;5111793;28;20213;-96
2022/11/23 06:56:55;;;;;;;14.07;3.67;;;10.90;86.20;;;;;;5118196;28;20224;-95
2022/11/23 06:59:28;;;;;;;13.13;4.10;;;10.80;86.10;;;;;;5115683;27;20241;-93
2022/11/23 07:01:57;;;;;;;17.17;3.93;;;10.80;86.40;;;;;;5111534;28;20209;-95
2022/11/23 07:04:25;;;;;;;21.10;5.17;;;10.70;86.30;;;;;;5110467;28;20258;-95
2022/11/23 07:06:58;;;;;;;11.27;3.80;;;10.70;86.50;;;;;;5112466;28;20215;-94
2022/11/23 07:09:26;;;;;;;17.37;4.93;;;10.70;86.40;;;;;;5109641;27;21357;-94
2022/11/23 07:11:55;;;;;;;14.63;4.50;;;10.70;86.60;;;;;;5108134;27;20689;-93
2022/11/23 07:14:23;;;;;;;15.80;4.03;;;10.60;86.30;;;;;;5092051;28;20207;-93
2022/11/23 07:16:53;;;;;;;15.77;4.43;;;10.60;86.40;;;;;;5092844;28;20903;-94
2022/11/23 07:19:21;;;;;;;15.93;4.43;;;10.50;86.40;;;;;;5111878;28;20251;-93
2022/11/23 07:21:50;;;;;;;11.50;3.93;;;10.50;86.60;;;;;;5111893;28;20634;-94
2022/11/23 07:24:18;;;;;;;19.43;5.37;;;10.50;86.80;;;;;;5111322;27;20247;-93
2022/11/23 07:26:45;;;;;;;16.17;4.87;;;10.40;86.90;;;;;;5113894;28;20204;-93
2022/11/23 07:29:12;;;;;;;17.63;5.37;;;10.40;86.90;;;;;;5096717;28;20205;-94
2022/11/23 07:31:39;;;;;;;15.43;4.60;;;10.30;86.90;;;;;;5110713;28;20220;-95
2022/11/23 07:34:09;;;;;;;12.80;4.07;;;10.30;87.00;;;;;;5112500;28;20201;-95
2022/11/23 07:36:38;;;;;;;16.40;4.73;;;10.30;87.10;;;;;;5111306;28;20210;-95
2022/11/23 07:39:06;;;;;;;20.53;4.63;;;10.20;87.10;;;;;;5112225;28;20228;-94
2022/11/23 07:41:33;;;;;;;18.73;4.53;;;10.20;87.40;;;;;;5111986;28;20208;-95
2022/11/23 07:44:01;;;;;;;16.17;4.63;;;10.10;87.60;;;;;;5112929;28;20186;-93
2022/11/23 07:46:28;;;;;;;17.97;4.80;;;10.10;87.70;;;;;;5112108;28;20221;-93
2022/11/23 07:49:01;;;;;;;19.10;5.37;;;10.00;87.60;;;;;;5125173;27;20645;-93
2022/11/23 07:51:28;;;;;;;19.10;5.83;;;9.90;88.70;;;;;;5132652;27;20205;-94
2022/11/23 07:54:00;;;;;;;14.07;4.97;;;10.00;87.90;;;;;;5134379;27;20187;-93
2022/11/23 07:56:28;;;;;;;12.80;4.87;;;9.90;89.40;;;;;;5134269;27;20209;-92
2022/11/23 07:58:56;;;;;;;36.53;9.10;;;9.80;89.70;;;;;;5132205;27;20232;-94
2022/11/23 08:01:23;;;;;;;15.97;5.20;;;9.70;89.70;;;;;;5132702;27;20204;-94
2022/11/23 08:03:51;;;;;;;16.63;5.37;;;9.80;90.00;;;;;;5117385;27;20280;-94
2022/11/23 08:06:18;;;;;;;20.97;5.93;;;9.70;90.50;;;;;;5131030;27;20207;-94
2022/11/23 08:08:47;;;;;;;14.73;4.73;;;9.70;90.30;;;;;;5130986;27;20620;-93
2022/11/23 08:11:21;;;;;;;17.07;5.80;;;9.70;90.40;;;;;;5129825;27;20278;-92
2022/11/23 08:13:48;;;;;;;17.73;5.23;;;9.60;90.60;;;;;;5130139;27;20225;-93
2022/11/23 08:16:15;;;;;;;15.37;5.10;;;9.60;90.80;;;;;;5130457;27;20233;-93
2022/11/23 08:18:44;;;;;;;16.40;5.03;;;9.60;90.90;;;;;;5128658;27;20278;-94
2022/11/23 08:21:15;;;;;;;14.67;5.13;;;9.60;91.10;;;;;;5129512;27;20689;-94
2022/11/23 08:23:42;;;;;;;16.07;4.80;;;9.60;91.30;;;;;;5129689;27;20210;-93
2022/11/23 08:26:15;;;;;;;16.27;4.77;;;9.60;91.30;;;;;;5136055;27;20202;-94
2022/11/23 08:28:48;;;;;;;15.97;4.50;;;9.60;91.70;;;;;;5120548;28;20215;-93
2022/11/23 08:31:15;;;;;;;21.00;6.47;;;9.60;91.40;;;;;;5115121;28;20215;-93
2022/11/23 08:33:42;;;;;;;11.33;4.53;;;9.60;91.50;;;;;;5115097;28;20233;-93
2022/11/23 08:36:10;;;;;;;13.43;5.50;;;9.60;91.60;;;;;;5112549;28;20558;-95
2022/11/23 08:38:38;;;;;;;14.43;5.30;;;9.60;91.70;;;;;;5111510;28;20204;-93
2022/11/23 08:41:08;;;;;;;17.90;6.20;;;9.60;91.70;;;;;;5112662;28;20216;-93
2022/11/23 08:43:36;;;;;;;15.47;5.27;;;9.60;91.90;;;;;;5112249;28;20262;-93
2022/11/23 08:46:06;;;;;;;15.43;5.17;;;9.60;91.90;;;;;;5113096;28;20251;-95
2022/11/23 08:48:36;;;;;;;20.90;6.83;;;9.60;92.00;;;;;;5113694;28;20200;-94
2022/11/23 08:51:03;;;;;;;12.97;4.73;;;9.60;92.10;;;;;;5106060;27;20557;-92
2022/11/23 08:53:30;;;;;;;11.03;4.73;;;9.70;92.10;;;;;;5091906;28;20640;-94
2022/11/23 08:56:04;;;;;;;15.87;5.33;;;9.70;92.20;;;;;;5091210;28;20232;-92
2022/11/23 08:58:31;;;;;;;18.87;5.80;;;9.70;92.30;;;;;;5090171;28;20220;-92
2022/11/23 09:00:59;;;;;;;11.07;5.10;;;9.70;92.30;;;;;;5089932;28;20201;-94
2022/11/23 09:03:28;;;;;;;17.70;6.10;;;9.80;92.30;;;;;;5111359;28;20204;-91
2022/11/23 09:06:00;;;;;;;12.50;5.27;;;9.80;92.50;;;;;;5130081;27;20285;-94
2022/11/23 09:08:27;;;;;;;12.70;5.40;;;9.80;92.50;;;;;;5129909;27;20231;-94
2022/11/23 09:11:01;;;;;;;17.00;5.37;;;9.90;92.50;;;;;;5129403;27;20204;-92
2022/11/23 09:13:28;;;;;;;14.57;6.03;;;9.90;92.80;;;;;;5108343;28;20236;-94
2022/11/23 09:15:58;;;;;;;16.97;5.83;;;9.90;92.70;;;;;;5109086;28;20216;-95
2022/11/23 09:18:25;;;;;;;16.23;6.37;;;10.00;92.40;;;;;;5121795;27;20313;-93
2022/11/23 09:20:56;;;;;;;17.47;6.30;;;10.00;92.30;;;;;;5126735;27;20198;-95
2022/11/23 09:23:26;;;;;;;14.63;5.90;;;10.00;92.30;;;;;;5113503;28;20200;-93
2022/11/23 09:25:54;;;;;;;21.13;5.97;;;10.10;92.40;;;;;;5113216;28;20204;-94
2022/11/23 09:28:23;;;;;;;16.63;5.40;;;10.10;92.30;;;;;;5115321;28;20190;-95
2022/11/23 09:30:50;;;;;;;18.47;6.47;;;10.10;92.30;;;;;;5114477;28;21014;-93
2022/11/23 09:33:19;;;;;;;19.47;5.87;;;10.20;92.30;;;;;;5118819;27;20235;-95
2022/11/23 09:35:46;;;;;;;15.20;4.80;;;10.20;92.40;;;;;;5134639;27;20298;-95
2022/11/23 09:38:16;;;;;;;15.43;5.57;;;10.20;92.30;;;;;;5132020;27;20222;-95
2022/11/23 09:40:47;;;;;;;15.77;5.07;;;10.30;92.30;;;;;;5114267;28;20205;-93
2022/11/23 09:43:37;;;;;;;13.73;5.00;;;10.40;92.40;;;;;;5120693;28;20210;-94
2022/11/23 09:46:15;;;;;;;20.90;6.37;;;10.40;92.40;;;;;;5117579;27;20206;-96
2022/11/23 09:49:01;;;;;;;20.03;6.53;;;10.40;92.40;;;;;;5133387;27;20208;-96
2022/11/23 09:51:28;;;;;;;19.90;6.27;;;10.50;92.40;;;;;;5116587;27;20190;-93
2022/11/23 09:54:05;;;;;;;15.40;5.40;;;10.50;92.30;;;;;;5111329;28;20271;-94
2022/11/23 09:56:35;;;;;;;18.23;5.87;;;10.60;92.70;;;;;;5114050;27;20236;-93
2022/11/23 09:59:11;;;;;;;16.77;5.57;;;10.60;92.30;;;;;;5118571;27;20222;-94
2022/11/23 10:01:38;;;;;;;17.30;5.53;;;10.60;92.60;;;;;;5110206;28;20209;-94
2022/11/23 10:04:07;;;;;;;17.67;5.57;;;10.70;92.20;;;;;;5128903;27;20202;-94
2022/11/23 10:06:40;;;;;;;15.27;5.10;;;10.70;92.10;;;;;;5131757;27;20194;-94
2022/11/23 10:09:25;;;;;;;19.20;4.43;;;10.80;92.20;;;;;;5123585;27;20200;-95
2022/11/23 10:12:08;;;;;;;18.97;5.43;;;10.80;92.20;;;;;;5132469;27;20252;-92
2022/11/23 10:15:01;;;;;;;19.70;5.50;;;10.80;92.20;;;;;;5129215;27;20245;-94
2022/11/23 10:17:43;;;;;;;23.03;6.47;;;10.90;92.20;;;;;;5133307;27;20262;-93
2022/11/23 10:20:30;;;;;;;16.17;5.43;;;11.00;92.30;;;;;;5134217;27;20238;-93
2022/11/23 10:22:59;;;;;;;31.40;8.43;;;11.00;92.20;;;;;;5135769;27;20201;-92
2022/11/23 10:25:35;;;;;;;19.57;6.97;;;11.10;92.10;;;;;;5138598;27;20714;-91
2022/11/23 10:28:12;;;;;;;23.90;6.77;;;11.20;91.90;;;;;;5134021;27;20197;-93
2022/11/23 10:30:41;;;;;;;26.80;6.93;;;11.20;91.80;;;;;;5092680;28;20640;-93
2022/11/23 10:33:25;;;;;;;10.90;5.13;;;11.30;91.70;;;;;;5094954;28;21053;-94
2022/11/23 10:35:58;;;;;;;13.77;5.13;;;11.30;91.50;;;;;;5111428;28;20541;-93
2022/11/23 10:38:26;;;;;;;16.83;6.23;;;11.40;91.40;;;;;;5112403;28;20194;-95
2022/11/23 10:41:02;;;;;;;24.23;7.27;;;11.40;91.40;;;;;;5105560;27;20306;-93
2022/11/23 10:43:34;;;;;;;15.80;5.03;;;11.40;91.10;;;;;;5102868;28;20210;-95
2022/11/23 10:46:29;;;;;;;16.80;6.10;;;11.40;91.20;;;;;;5113134;28;20228;-95
2022/11/23 10:49:14;;;;;;;17.40;5.97;;;11.50;91.30;;;;;;5115643;28;20262;-94
2022/11/23 10:52:02;;;;;;;16.93;5.87;;;11.50;91.20;;;;;;5116223;28;20259;-96
2022/11/23 10:54:33;;;;;;;13.87;5.27;;;11.60;91.00;;;;;;5119703;28;20253;-94
2022/11/23 10:57:08;;;;;;;15.50;5.07;;;11.60;91.00;;;;;;5120898;28;20548;-95
2022/11/23 10:59:38;;;;;;;12.83;5.13;;;11.60;91.00;;;;;;5119082;28;20217;-96
2022/11/23 11:02:20;;;;;;;12.47;4.57;;;11.60;90.90;;;;;;5117380;28;20209;-95
2022/11/23 11:04:51;;;;;;;12.00;4.90;;;11.70;90.90;;;;;;5114978;28;20194;-94
2022/11/23 11:07:27;;;;;;;16.77;5.63;;;11.70;91.00;;;;;;5113713;28;20213;-92
2022/11/23 11:09:57;;;;;;;13.93;5.20;;;11.70;91.30;;;;;;5104476;28;20209;-91
2022/11/23 11:12:27;;;;;;;16.33;6.17;;;11.70;91.50;;;;;;5109562;28;20776;-92
2022/11/23 11:15:01;;;;;;;13.97;5.30;;;11.70;91.50;;;;;;5109367;28;20920;-94
2022/11/23 11:17:31;;;;;;;14.43;5.40;;;11.70;91.50;;;;;;5109785;28;20255;-93
2022/11/23 11:19:59;;;;;;;15.07;5.30;;;11.70;91.60;;;;;;5114643;28;20247;-93
2022/11/23 11:22:32;;;;;;;13.77;4.77;;;11.70;91.70;;;;;;5111883;28;20225;-93
2022/11/23 11:25:01;;;;;;;10.43;4.53;;;11.60;91.70;;;;;;5111005;28;20202;-93
2022/11/23 11:27:32;;;;;;;17.07;6.07;;;11.60;91.80;;;;;;5110045;28;20977;-92
2022/11/23 11:30:05;;;;;;;16.33;5.73;;;11.60;91.70;;;;;;5109196;28;20263;-92
2022/11/23 11:32:45;;;;;;;18.37;5.40;;;11.50;92.30;;;;;;5117434;27;20788;-92
2022/11/23 11:35:15;;;;;;;11.83;4.53;;;11.60;92.00;;;;;;5130099;27;20316;-93
2022/11/23 11:37:44;;;;;;;14.40;5.07;;;11.50;91.90;;;;;;5131310;27;20198;-93
2022/11/23 11:40:20;;;;;;;13.47;5.30;;;11.50;92.10;;;;;;5136309;27;20673;-93
2022/11/23 11:42:53;;;;;;;14.90;4.80;;;11.50;92.20;;;;;;5118465;27;20297;-93
2022/11/23 11:45:25;;;;;;;14.63;5.40;;;11.40;92.30;;;;;;5110049;28;20597;-93
2022/11/23 11:47:59;;;;;;;13.47;4.17;;;11.40;92.40;;;;;;5118532;27;20300;-90
2022/11/23 11:50:30;;;;;;;14.93;5.83;;;11.40;92.50;;;;;;5128745;27;20261;-91
2022/11/23 11:53:03;;;;;;;9.73;4.27;;;11.30;92.60;;;;;;5128813;27;20308;-95
2022/11/23 11:55:38;;;;;;;17.17;4.80;;;11.30;92.90;;;;;;5130968;27;20267;-91
2022/11/23 11:58:16;;;;;;;27.43;6.60;;;11.30;92.90;;;;;;5129557;27;20228;-94
2022/11/23 12:00:46;;;;;;;13.37;4.83;;;11.40;93.00;;;;;;5113843;28;20198;-94
2022/11/23 12:03:20;;;;;;;16.50;5.40;;;11.30;93.00;;;;;;5116369;27;20205;-92
2022/11/23 12:05:50;;;;;;;11.83;4.10;;;11.30;93.20;;;;;;5095357;28;20199;-94
2022/11/23 12:08:23;;;;;;;13.90;4.63;;;11.30;93.40;;;;;;5095499;28;20178;-93
2022/11/23 12:11:04;;;;;;;10.93;4.13;;;11.30;93.70;;;;;;5109275;28;20197;-94
2022/11/23 12:13:40;;;;;;;14.33;4.47;;;11.30;93.60;;;;;;5090285;28;20317;-94
2022/11/23 12:16:22;;;;;;;10.47;3.60;;;11.30;93.60;;;;;;5111867;27;20248;-94
2022/11/23 12:19:12;;;;;;;12.17;4.37;;;11.30;93.60;;;;;;5121001;27;20259;-94
2022/11/23 12:22:06;;;;;;;15.43;5.03;;;11.30;93.70;;;;;;5096543;28;20207;-92
2022/11/23 12:25:01;;;;;;;16.40;5.13;;;11.30;93.80;;;;;;5119761;27;20294;-93
2022/11/23 12:27:42;;;;;;;12.77;4.50;;;11.30;94.10;;;;;;5111287;28;20210;-93
2022/11/23 12:30:24;;;;;;;11.77;4.17;;;11.30;94.20;;;;;;5111299;28;20859;-94
2022/11/23 12:33:10;;;;;;;8.17;3.37;;;11.30;94.20;;;;;;5124153;28;20210;-91
2022/11/23 12:36:07;;;;;;;15.37;4.67;;;11.40;94.20;;;;;;5121714;28;20197;-94
2022/11/23 12:38:46;;;;;;;12.07;3.53;;;11.40;94.20;;;;;;5129863;28;20199;-94
2022/11/23 12:41:26;;;;;;;11.70;4.10;;;11.40;94.40;;;;;;5129378;28;20201;-95
2022/11/23 12:44:09;;;;;;;11.10;4.00;;;11.40;94.60;;;;;;5129328;28;20207;-95
2022/11/23 12:46:55;;;;;;;9.03;3.53;;;11.40;94.70;;;;;;5128147;28;20216;-94
2022/11/23 12:49:38;;;;;;;11.53;4.07;;;11.50;94.50;;;;;;5144140;27;20205;-95
2022/11/23 12:52:23;;;;;;;7.30;3.00;;;11.50;94.60;;;;;;5136249;27;20795;-94
2022/11/23 12:55:01;;;;;;;10.97;3.87;;;11.50;94.50;;;;;;5139850;27;20263;-93
2022/11/23 12:57:34;;;;;;;9.07;3.40;;;11.50;94.50;;;;;;5142254;27;20229;-94
2022/11/23 13:00:07;;;;;;;9.87;3.63;;;11.60;94.40;;;;;;5134392;27;20633;-95
2022/11/23 13:03:10;;;;;;;11.70;4.33;;;11.60;94.40;;;;;;5134089;27;20216;-94
2022/11/23 13:06:21;;;;;;;11.43;4.27;;;11.60;94.60;;;;;;5121868;28;20236;-95
2022/11/23 13:09:35;;;;;;;11.27;4.60;;;11.60;94.40;;;;;;5085315;28;20214;-94
2022/11/23 13:12:25;;;;;;;10.17;3.27;;;11.70;94.40;;;;;;5097719;28;20720;-94
2022/11/23 13:15:05;;;;;;;9.77;3.07;;;11.60;94.30;;;;;;5096873;28;20229;-94
2022/11/23 13:17:43;;;;;;;7.63;3.33;;;11.70;94.50;;;;;;5098419;28;20199;-93
2022/11/23 13:20:50;;;;;;;7.73;3.33;;;11.70;94.70;;;;;;5114055;28;20205;-94
2022/11/23 13:23:22;;;;;;;6.67;3.10;;;11.70;94.40;;;;;;5112425;27;20627;-95
2022/11/23 13:26:12;;;;;;;8.23;3.47;;;11.70;94.30;;;;;;5118039;28;20231;-93
2022/11/23 13:28:45;;;;;;;7.57;3.53;;;11.80;94.60;;;;;;5117125;27;20206;-94
2022/11/23 13:31:26;;;;;;;9.67;3.27;;;11.80;94.40;;;;;;5117025;28;20214;-93
2022/11/23 13:34:24;;;;;;;7.47;3.00;;;11.80;94.50;;;;;;5120656;28;20293;-95
2022/11/23 13:37:17;;;;;;;8.13;3.50;;;11.80;94.70;;;;;;5114322;28;20202;-93
2022/11/23 13:40:03;;;;;;;7.70;3.67;;;11.80;94.90;;;;;;5112753;27;20280;-93
2022/11/23 13:42:36;;;;;;;10.13;3.43;;;11.80;94.90;;;;;;5127674;27;20217;-95
2022/11/23 13:45:33;;;;;;;7.93;3.57;;;11.90;94.80;;;;;;5140228;27;20193;-94
2022/11/23 13:48:22;;;;;;;7.53;3.10;;;11.90;95.00;;;;;;5103791;27;20201;-96
2022/11/23 13:50:59;;;;;;;7.50;2.80;;;11.90;95.00;;;;;;5139309;27;20258;-94
2022/11/23 13:53:32;;;;;;;7.20;3.27;;;11.90;94.90;;;;;;5139790;27;20247;-95
2022/11/23 13:56:22;;;;;;;7.57;3.10;;;12.00;94.90;;;;;;5139555;27;20232;-95
2022/11/23 13:58:55;;;;;;;5.70;2.33;;;12.00;95.10;;;;;;5139242;27;20231;-95
2022/11/23 14:02:05;;;;;;;7.57;3.27;;;12.00;95.20;;;;;;5141072;27;20650;-96
2022/11/23 14:04:34;;;;;;;7.03;3.20;;;12.10;95.30;;;;;;5142037;27;20224;-95
2022/11/23 14:07:18;;;;;;;8.27;3.37;;;12.10;95.20;;;;;;5134814;27;20294;-94
2022/11/23 14:10:00;;;;;;;8.87;3.37;;;12.20;95.40;;;;;;5123124;28;20202;-96
2022/11/23 14:12:37;;;;;;;7.13;2.93;;;12.30;95.30;;;;;;5120052;28;20209;-96
2022/11/23 14:15:15;;;;;;;12.50;4.47;;;12.30;95.20;;;;;;5120560;27;20228;-95
2022/11/23 14:18:17;;;;;;;8.33;3.37;;;12.40;95.30;;;;;;5137471;27;20636;-96
2022/11/23 14:21:02;;;;;;;8.20;3.47;;;12.40;95.30;;;;;;5118873;28;20251;-95
2022/11/23 14:24:29;;;;;;;8.10;3.53;;;12.50;95.20;;;;;;5117820;28;20201;-95
2022/11/23 14:27:26;;;;;;;7.13;3.17;;;12.50;95.10;;;;;;5098626;28;20238;-94
2022/11/23 14:30:52;;;;;;;7.43;3.00;;;12.60;95.00;;;;;;5112995;28;20224;-94
2022/11/23 14:33:37;;;;;;;5.13;2.20;;;12.60;95.10;;;;;;5109784;28;20211;-94
2022/11/23 14:36:20;;;;;;;7.83;2.63;;;12.70;94.80;;;;;;5119175;28;20198;-95
2022/11/23 14:39:27;;;;;;;5.43;2.47;;;12.70;94.80;;;;;;5118661;28;20199;-96
2022/11/23 14:42:12;;;;;;;6.43;2.63;;;12.80;94.90;;;;;;5087293;28;20201;-95
2022/11/23 14:44:47;;;;;;;6.17;2.80;;;12.80;94.80;;;;;;5116789;28;20209;-96
2022/11/23 14:47:17;;;;;;;8.83;3.10;;;12.80;94.60;;;;;;5117922;28;20190;-92
2022/11/23 14:49:56;;;;;;;7.07;2.63;;;12.80;94.40;;;;;;5116832;27;20239;-94
2022/11/23 14:52:28;;;;;;;5.43;2.37;;;12.90;94.40;;;;;;5104334;28;20287;-94
2022/11/23 14:55:00;;;;;;;9.00;3.17;;;12.90;94.20;;;;;;5116193;27;20297;-95
2022/11/23 14:57:37;;;;;;;8.67;3.60;;;12.90;94.00;;;;;;5129134;28;20213;-95
2022/11/23 15:00:08;;;;;;;6.30;2.70;;;12.90;93.90;;;;;;5117618;28;20203;-95
2022/11/23 15:02:39;;;;;;;12.20;3.73;;;12.90;93.90;;;;;;5132928;28;20326;-94
2022/11/23 15:05:19;;;;;;;9.60;2.90;;;12.90;93.90;;;;;;5130817;28;20203;-93
2022/11/23 15:07:58;;;;;;;7.10;2.77;;;12.90;93.90;;;;;;5138622;27;20546;-95
2022/11/23 15:10:53;;;;;;;5.70;2.60;;;12.90;93.90;;;;;;5134104;28;20225;-93
2022/11/23 15:13:24;;;;;;;6.37;2.50;;;12.90;94.00;;;;;;5135714;28;20195;-96
2022/11/23 15:16:32;;;;;;;5.93;2.40;;;12.90;93.90;;;;;;5134444;28;20252;-96
2022/11/23 15:19:18;;;;;;;3.53;1.90;;;12.90;94.00;;;;;;5115119;28;20209;-95
2022/11/23 15:21:51;;;;;;;8.03;3.10;;;12.90;93.90;;;;;;5111323;27;20213;-95
2022/11/23 15:24:32;;;;;;;12.07;4.63;;;12.80;93.70;;;;;;5114670;28;20213;-94
2022/11/23 15:27:05;;;;;;;13.03;3.93;;;12.90;93.80;;;;;;5113808;27;20190;-94
2022/11/23 15:29:50;;;;;;;11.33;3.77;;;12.80;93.60;;;;;;5112948;28;20206;-95
2022/11/23 15:32:25;;;;;;;10.47;3.43;;;12.80;93.70;;;;;;5116808;28;20229;-94
2022/11/23 15:34:58;;;;;;;5.67;2.53;;;12.80;93.60;;;;;;5118097;28;20219;-94